Time;durP1;ratioP1;P1;durP2;ratioP2;P2;SDS_P1;SDS_P2;PMS_P1;PMS_P2;Temp;Humidity;BMP_temperature;BMP_pressure;BME280_temperature;BME280_humidity;BME280_pressure;Samples;Min_cycle;Max_cycle;Signal;HPM_P1;HPM_P2
2022/06/18 00:02:11;;;;;;;12.60;10.70;;;22.20;59.60;;;;;;5021443;28;20292;-75
2022/06/18 00:04:37;;;;;;;14.05;10.50;;;22.20;59.70;;;;;;5022541;28;20038;-75
2022/06/18 00:07:06;;;;;;;14.18;10.18;;;22.20;59.80;;;;;;4991017;28;20040;-74
2022/06/18 00:09:36;;;;;;;15.07;11.07;;;22.20;59.80;;;;;;5019466;28;20060;-75
2022/06/18 00:15:13;;;;;;;14.05;10.55;;;22.20;60.00;;;;;;5011681;28;20543;-75
2022/06/18 00:17:39;;;;;;;12.82;10.35;;;22.10;59.70;;;;;;5019086;28;20041;-75
2022/06/18 00:20:06;;;;;;;12.73;10.48;;;22.20;59.90;;;;;;5021271;28;20033;-75
2022/06/18 00:22:32;;;;;;;14.48;10.73;;;22.10;59.80;;;;;;5020772;28;20057;-75
2022/06/18 00:25:00;;;;;;;15.77;10.77;;;22.10;59.90;;;;;;5012943;28;20041;-75
2022/06/18 00:27:27;;;;;;;12.90;10.35;;;22.10;60.50;;;;;;5020742;28;20384;-75
2022/06/18 00:29:54;;;;;;;15.35;11.30;;;22.10;60.00;;;;;;5018353;28;20513;-75
2022/06/18 00:32:19;;;;;;;15.52;11.02;;;22.00;59.90;;;;;;5011273;28;20034;-75
2022/06/18 00:34:47;;;;;;;14.32;10.80;;;22.10;60.10;;;;;;5018172;28;20382;-76
2022/06/18 00:37:16;;;;;;;13.27;10.30;;;22.00;60.00;;;;;;5019795;28;20045;-75
2022/06/18 00:39:43;;;;;;;13.63;10.40;;;22.00;60.10;;;;;;5020296;28;20030;-74
2022/06/18 00:42:22;;;;;;;14.98;11.43;;;22.00;60.10;;;;;;5018781;28;20064;-75
2022/06/18 00:44:53;;;;;;;13.13;10.75;;;22.00;60.30;;;;;;5019385;28;20033;-74
2022/06/18 00:47:22;;;;;;;16.25;11.80;;;22.00;60.30;;;;;;5015090;28;20627;-75
2022/06/18 00:50:10;;;;;;;13.82;11.45;;;22.00;60.40;;;;;;5012242;28;20029;-75
2022/06/18 00:52:39;;;;;;;14.65;10.93;;;22.00;60.50;;;;;;5013216;28;20580;-75
2022/06/18 00:55:14;;;;;;;17.50;11.70;;;21.90;60.20;;;;;;5022061;28;20026;-74
2022/06/18 00:57:58;;;;;;;18.45;13.07;;;21.90;60.30;;;;;;5013096;28;20044;-75
2022/06/18 01:00:32;;;;;;;15.32;11.48;;;21.90;60.40;;;;;;5016446;28;20313;-75
2022/06/18 01:02:59;;;;;;;15.30;12.48;;;21.90;60.40;;;;;;5012603;28;20284;-74
2022/06/18 01:05:32;;;;;;;13.35;11.52;;;21.90;60.40;;;;;;5019277;28;20477;-75
2022/06/18 01:08:03;;;;;;;16.88;12.57;;;21.90;60.50;;;;;;5021993;28;20034;-75
2022/06/18 01:10:34;;;;;;;15.38;12.73;;;21.90;60.60;;;;;;5011799;28;20095;-76
2022/06/18 01:13:04;;;;;;;14.98;11.77;;;21.80;60.50;;;;;;5012703;28;20033;-75
2022/06/18 01:15:34;;;;;;;16.63;11.80;;;21.80;60.60;;;;;;5020556;28;20029;-75
2022/06/18 01:18:03;;;;;;;15.52;11.82;;;21.80;60.60;;;;;;4999959;28;20100;-74
2022/06/18 01:20:30;;;;;;;16.25;12.73;;;21.80;60.60;;;;;;5018688;28;20071;-76
2022/06/18 01:23:11;;;;;;;18.05;13.55;;;21.80;60.70;;;;;;5009509;28;20444;-77
2022/06/18 01:25:37;;;;;;;18.20;13.25;;;21.80;60.90;;;;;;5007769;28;20572;-76
2022/06/18 01:28:03;;;;;;;16.90;13.50;;;21.70;60.60;;;;;;4992106;28;20065;-75
2022/06/18 01:30:36;;;;;;;15.73;13.43;;;21.70;60.70;;;;;;5013593;28;20026;-74
2022/06/18 01:33:08;;;;;;;15.63;13.35;;;21.70;60.70;;;;;;5017907;28;20029;-75
2022/06/18 01:35:41;;;;;;;14.93;12.13;;;21.70;60.80;;;;;;5018668;28;20113;-76
2022/06/18 01:38:13;;;;;;;15.90;13.02;;;21.70;60.80;;;;;;5019117;28;20037;-75
2022/06/18 01:40:50;;;;;;;16.42;13.07;;;21.70;60.90;;;;;;5015528;28;20032;-75
2022/06/18 01:43:20;;;;;;;15.68;13.40;;;21.70;61.10;;;;;;5016391;28;20123;-76
2022/06/18 01:45:55;;;;;;;17.60;13.57;;;21.70;61.00;;;;;;5019030;28;20132;-75
2022/06/18 01:48:33;;;;;;;15.95;12.38;;;21.70;61.10;;;;;;5020122;28;20053;-76
2022/06/18 01:51:12;;;;;;;17.20;12.68;;;21.60;61.00;;;;;;5022378;28;20332;-76
2022/06/18 01:53:46;;;;;;;16.42;12.07;;;21.60;61.00;;;;;;5023030;28;20037;-75
2022/06/18 01:56:19;;;;;;;17.00;13.30;;;21.60;61.10;;;;;;5023588;28;20036;-75
2022/06/18 01:59:17;;;;;;;12.70;11.20;;;21.60;61.10;;;;;;5024115;28;20458;-76
2022/06/18 02:01:45;;;;;;;17.17;12.70;;;21.50;60.90;;;;;;5017591;28;20056;-76
2022/06/18 02:04:16;;;;;;;14.48;12.15;;;21.60;61.10;;;;;;5041934;28;20027;-76
2022/06/18 02:06:45;;;;;;;14.20;12.20;;;21.60;61.20;;;;;;5045120;28;20568;-75
2022/06/18 02:09:32;;;;;;;15.40;12.60;;;21.50;61.10;;;;;;5047032;28;20291;-74
2022/06/18 02:12:02;;;;;;;14.50;12.73;;;21.50;61.20;;;;;;5030480;28;20021;-75
2022/06/18 02:14:35;;;;;;;19.17;13.85;;;21.50;61.10;;;;;;5028234;28;20128;-75
2022/06/18 02:17:05;;;;;;;14.02;11.68;;;21.50;61.20;;;;;;5028291;28;20079;-75
2022/06/18 02:19:38;;;;;;;16.58;13.27;;;21.50;61.30;;;;;;5028214;28;20048;-75
2022/06/18 02:22:06;;;;;;;14.60;12.32;;;21.50;61.40;;;;;;5024638;28;20216;-75
2022/06/18 02:24:32;;;;;;;14.52;11.43;;;21.40;61.20;;;;;;5026362;28;20037;-76
2022/06/18 02:26:59;;;;;;;14.65;11.80;;;21.40;61.20;;;;;;5028976;28;20029;-76
2022/06/18 02:29:30;;;;;;;15.70;12.98;;;21.40;61.40;;;;;;5000968;28;20037;-74
2022/06/18 02:32:03;;;;;;;15.15;12.68;;;21.40;61.50;;;;;;5005301;28;20113;-76
2022/06/18 02:34:33;;;;;;;14.40;11.30;;;21.40;61.50;;;;;;5025912;28;20041;-75
2022/06/18 02:37:00;;;;;;;14.20;12.27;;;21.40;61.60;;;;;;5015792;28;20026;-74
2022/06/18 02:39:34;;;;;;;16.50;12.02;;;21.30;61.50;;;;;;5026892;28;20497;-76
2022/06/18 02:42:08;;;;;;;14.00;11.80;;;21.40;61.80;;;;;;5032653;28;20626;-75
2022/06/18 02:44:38;;;;;;;18.08;12.57;;;21.30;61.60;;;;;;5007387;28;20037;-74
2022/06/18 02:47:06;;;;;;;14.23;11.55;;;21.30;61.60;;;;;;5033006;28;20392;-76
2022/06/18 02:49:37;;;;;;;16.65;11.68;;;21.30;61.70;;;;;;5026426;28;20409;-75
2022/06/18 02:52:04;;;;;;;13.20;11.77;;;21.30;61.80;;;;;;5021356;28;20038;-75
2022/06/18 02:54:32;;;;;;;15.30;11.15;;;21.30;61.80;;;;;;5021757;28;20033;-76
2022/06/18 02:57:03;;;;;;;13.13;11.45;;;21.30;61.90;;;;;;5024907;28;20033;-75
2022/06/18 02:59:30;;;;;;;13.35;11.77;;;21.30;61.60;;;;;;5022877;28;20520;-76
2022/06/18 03:01:57;;;;;;;16.50;11.80;;;21.30;61.90;;;;;;5018315;28;20025;-74
2022/06/18 03:04:24;;;;;;;15.43;11.07;;;21.30;62.00;;;;;;5023516;28;20041;-75
2022/06/18 03:06:51;;;;;;;14.30;11.05;;;21.30;62.10;;;;;;5025096;28;20036;-75
2022/06/18 03:09:17;;;;;;;12.07;10.18;;;21.30;62.10;;;;;;5024287;28;20025;-75
2022/06/18 03:14:29;;;;;;;12.43;10.27;;;21.20;62.00;;;;;;5040319;28;20367;-75
2022/06/18 03:16:56;;;;;;;12.27;10.32;;;21.20;62.00;;;;;;5023379;28;20029;-75
2022/06/18 03:19:49;;;;;;;12.40;9.95;;;21.20;62.20;;;;;;5037070;28;20386;-76
2022/06/18 03:22:18;;;;;;;13.65;11.50;;;21.20;62.30;;;;;;5023086;28;20045;-75
2022/06/18 03:24:44;;;;;;;12.93;10.23;;;21.20;62.20;;;;;;5019242;28;20061;-76
2022/06/18 03:27:12;;;;;;;12.02;10.10;;;21.20;62.20;;;;;;5021691;28;20116;-75
2022/06/18 03:29:42;;;;;;;14.30;10.52;;;21.20;62.30;;;;;;5025266;28;20034;-76
2022/06/18 03:32:09;;;;;;;16.55;11.27;;;21.20;62.30;;;;;;5018320;28;20041;-75
2022/06/18 03:34:37;;;;;;;14.27;11.02;;;21.10;62.20;;;;;;5015896;28;20030;-74
2022/06/18 03:37:03;;;;;;;12.95;10.88;;;21.10;62.30;;;;;;5024035;28;20033;-75
2022/06/18 03:39:29;;;;;;;12.07;10.02;;;21.10;62.90;;;;;;5026479;28;20041;-75
2022/06/18 03:41:56;;;;;;;10.20;9.02;;;21.10;62.40;;;;;;5019165;28;20029;-74
2022/06/18 03:44:23;;;;;;;14.75;11.70;;;21.10;62.40;;;;;;5020142;28;20030;-75
2022/06/18 03:46:52;;;;;;;14.52;11.27;;;21.10;62.50;;;;;;5018020;28;20037;-76
2022/06/18 03:49:32;;;;;;;11.75;9.50;;;21.10;62.50;;;;;;5013672;28;20026;-75
2022/06/18 03:52:04;;;;;;;10.93;9.50;;;21.10;62.60;;;;;;5037365;28;20091;-75
2022/06/18 03:54:31;;;;;;;12.68;11.20;;;21.10;62.60;;;;;;5024299;28;20025;-76
2022/06/18 03:56:58;;;;;;;12.77;10.15;;;21.10;62.70;;;;;;5019896;28;20064;-74
2022/06/18 03:59:25;;;;;;;12.85;9.73;;;21.10;62.70;;;;;;5022934;28;20040;-75
2022/06/18 04:01:56;;;;;;;11.52;10.32;;;21.00;62.60;;;;;;5025097;28;20029;-75
2022/06/18 04:04:29;;;;;;;11.80;10.40;;;21.10;62.90;;;;;;5019032;28;20037;-75
2022/06/18 04:06:56;;;;;;;11.63;10.15;;;21.10;62.90;;;;;;5006025;28;20046;-75
2022/06/18 04:09:52;;;;;;;10.90;9.00;;;21.00;62.70;;;;;;4949922;28;20392;-75
2022/06/18 04:12:23;;;;;;;12.02;10.40;;;21.10;62.80;;;;;;5005498;28;20033;-76
2022/06/18 04:15:08;;;;;;;11.30;9.77;;;21.00;62.70;;;;;;5007129;28;20034;-75
2022/06/18 04:17:45;;;;;;;12.35;10.48;;;21.00;62.70;;;;;;5025487;28;20060;-75
2022/06/18 04:20:26;;;;;;;14.20;11.25;;;21.00;62.70;;;;;;5017017;28;20036;-74
2022/06/18 04:22:52;;;;;;;14.50;11.23;;;21.00;62.90;;;;;;5019570;28;20501;-75
2022/06/18 04:25:21;;;;;;;12.43;10.02;;;21.10;63.00;;;;;;5008389;28;20045;-74
2022/06/18 04:27:48;;;;;;;13.40;11.98;;;21.10;63.00;;;;;;5027263;28;20033;-75
2022/06/18 04:30:18;;;;;;;13.68;10.60;;;21.10;63.00;;;;;;5001982;28;20112;-75
2022/06/18 04:32:59;;;;;;;12.30;10.47;;;21.10;63.10;;;;;;5014128;28;20030;-76
2022/06/18 04:35:26;;;;;;;15.10;11.95;;;21.00;62.80;;;;;;5019431;28;20029;-75
2022/06/18 04:38:03;;;;;;;11.88;10.05;;;21.10;63.00;;;;;;5015045;28;20049;-76
2022/06/18 04:40:40;;;;;;;10.15;8.98;;;21.00;62.90;;;;;;5023518;28;20431;-75
2022/06/18 04:43:17;;;;;;;11.27;9.60;;;21.00;62.90;;;;;;5012117;28;20083;-75
2022/06/18 04:45:50;;;;;;;12.10;10.05;;;21.00;62.90;;;;;;5019697;28;20370;-76
2022/06/18 04:48:20;;;;;;;13.07;10.30;;;21.00;62.90;;;;;;5017391;28;22126;-76
2022/06/18 04:50:46;;;;;;;14.10;10.30;;;21.10;63.20;;;;;;5015137;28;20025;-75
2022/06/18 04:53:14;;;;;;;11.63;10.30;;;21.10;63.20;;;;;;5018163;28;20056;-74
2022/06/18 04:55:42;;;;;;;12.52;10.05;;;21.10;63.20;;;;;;5037599;28;20489;-75
2022/06/18 04:58:09;;;;;;;11.65;9.95;;;21.10;63.20;;;;;;5018792;28;20037;-76
2022/06/18 05:00:40;;;;;;;12.25;10.55;;;21.10;63.20;;;;;;4999411;28;20117;-76
2022/06/18 05:03:20;;;;;;;12.40;11.10;;;21.10;63.20;;;;;;5013458;28;20120;-74
2022/06/18 05:06:05;;;;;;;12.88;11.25;;;21.10;63.20;;;;;;5019783;28;20271;-75
2022/06/18 05:08:57;;;;;;;13.75;12.35;;;21.10;63.10;;;;;;5013408;28;20045;-75
2022/06/18 05:11:45;;;;;;;15.05;10.93;;;21.20;63.20;;;;;;5004546;28;20468;-75
2022/06/18 05:14:34;;;;;;;12.63;9.75;;;21.20;63.20;;;;;;5016591;28;20513;-76
2022/06/18 05:17:11;;;;;;;13.98;10.48;;;21.20;63.20;;;;;;5019928;28;20420;-75
2022/06/18 05:19:39;;;;;;;13.23;10.50;;;21.30;63.40;;;;;;5020342;28;20048;-77
2022/06/18 05:22:06;;;;;;;13.93;11.35;;;21.30;63.40;;;;;;5018412;28;20171;-76
2022/06/18 05:24:32;;;;;;;13.73;11.32;;;21.30;63.40;;;;;;4994174;28;20041;-75
2022/06/18 05:27:00;;;;;;;12.20;10.90;;;21.30;63.40;;;;;;5017986;28;20034;-77
2022/06/18 05:29:26;;;;;;;13.85;11.82;;;21.30;63.30;;;;;;5017684;28;20030;-76
2022/06/18 05:31:54;;;;;;;14.50;11.40;;;21.30;63.30;;;;;;4999361;28;20128;-75
2022/06/18 05:34:23;;;;;;;14.50;10.70;;;21.40;63.80;;;;;;4997436;28;20033;-78
2022/06/18 05:36:50;;;;;;;15.40;11.73;;;21.50;64.80;;;;;;5022758;28;20034;-75
2022/06/18 05:39:20;;;;;;;16.17;12.27;;;21.60;65.70;;;;;;5015586;28;20041;-76
2022/06/18 05:41:46;;;;;;;19.50;11.52;;;21.60;66.30;;;;;;5011638;28;20137;-75
2022/06/18 05:44:12;;;;;;;22.13;13.38;;;21.70;67.00;;;;;;5015681;28;20060;-79
2022/06/18 05:46:38;;;;;;;28.15;19.77;;;21.80;67.50;;;;;;5018962;28;20036;-79
2022/06/18 05:49:04;;;;;;;27.70;19.00;;;21.80;67.50;;;;;;4999338;28;20593;-81
2022/06/18 05:51:31;;;;;;;31.63;20.83;;;21.80;67.10;;;;;;5041449;28;20831;-78
2022/06/18 05:53:57;;;;;;;28.05;20.52;;;21.90;67.00;;;;;;5028006;28;20086;-77
2022/06/18 05:56:45;;;;;;;33.95;24.42;;;21.90;66.90;;;;;;5032845;28;20040;-77
2022/06/18 05:59:24;;;;;;;30.48;22.33;;;21.90;66.70;;;;;;5037500;28;20128;-78
2022/06/18 06:01:50;;;;;;;32.97;22.17;;;21.90;66.70;;;;;;5022577;28;20036;-74
2022/06/18 06:04:19;;;;;;;30.88;20.63;;;21.90;66.70;;;;;;5025524;28;20578;-74
2022/06/18 06:06:45;;;;;;;28.08;20.77;;;21.90;66.70;;;;;;5019471;28;20065;-78
2022/06/18 06:09:13;;;;;;;29.33;19.80;;;21.90;66.60;;;;;;5022200;28;20106;-73
2022/06/18 06:11:39;;;;;;;31.92;20.17;;;21.90;66.60;;;;;;5026077;28;20060;-74
2022/06/18 06:14:08;;;;;;;31.55;21.23;;;21.90;66.60;;;;;;5029469;28;20028;-74
2022/06/18 06:16:34;;;;;;;29.88;20.30;;;22.00;66.70;;;;;;5044296;28;20048;-73
2022/06/18 06:19:03;;;;;;;26.33;18.88;;;22.00;66.70;;;;;;5024742;28;20052;-74
2022/06/18 06:21:29;;;;;;;24.05;17.27;;;22.00;66.60;;;;;;5021420;28;20439;-75
2022/06/18 06:23:55;;;;;;;27.02;19.85;;;22.00;66.60;;;;;;5037671;28;20029;-74
2022/06/18 06:26:25;;;;;;;27.52;19.05;;;22.00;66.60;;;;;;5041175;28;20036;-75
2022/06/18 06:28:51;;;;;;;29.58;20.48;;;22.00;66.70;;;;;;5037633;28;20025;-75
2022/06/18 06:31:18;;;;;;;26.85;18.55;;;22.00;66.60;;;;;;5042390;28;20017;-74
2022/06/18 06:33:44;;;;;;;26.05;18.77;;;22.00;66.60;;;;;;5043791;28;20598;-74
2022/06/18 06:36:12;;;;;;;25.52;18.23;;;22.00;66.60;;;;;;5032307;28;20025;-74
2022/06/18 06:38:39;;;;;;;28.75;19.83;;;22.00;66.70;;;;;;5041112;28;20384;-76
2022/06/18 06:41:18;;;;;;;26.63;18.70;;;22.10;66.90;;;;;;5032991;28;20373;-75
2022/06/18 06:43:44;;;;;;;24.42;17.67;;;22.10;67.10;;;;;;5021097;28;20018;-75
2022/06/18 06:46:15;;;;;;;25.70;17.70;;;22.10;66.90;;;;;;5036508;28;20032;-74
2022/06/18 06:48:42;;;;;;;23.73;17.08;;;22.10;66.90;;;;;;5039872;28;20033;-75
2022/06/18 06:51:19;;;;;;;23.83;18.27;;;22.10;66.90;;;;;;5037637;28;20115;-75
2022/06/18 06:53:45;;;;;;;28.27;18.67;;;22.10;67.10;;;;;;5036603;28;20033;-76
2022/06/18 06:58:58;;;;;;;30.45;18.50;;;22.00;67.10;;;;;;5041177;28;20038;-75
2022/06/18 07:01:25;;;;;;;27.80;19.02;;;22.00;67.20;;;;;;5034514;28;20422;-77
2022/06/18 07:03:51;;;;;;;24.33;17.55;;;21.90;67.20;;;;;;5040293;28;20033;-77
2022/06/18 07:06:18;;;;;;;29.15;18.77;;;21.90;67.30;;;;;;5011288;28;20072;-75
2022/06/18 07:08:44;;;;;;;24.55;17.33;;;21.90;67.50;;;;;;5038385;28;20025;-76
2022/06/18 07:11:11;;;;;;;25.15;18.48;;;21.80;67.50;;;;;;5039177;28;20044;-76
2022/06/18 07:13:37;;;;;;;28.27;18.73;;;21.70;67.60;;;;;;5034267;28;20035;-75
2022/06/18 07:16:04;;;;;;;20.70;16.00;;;21.70;67.80;;;;;;5038603;28;20025;-75
2022/06/18 07:18:33;;;;;;;22.98;16.15;;;21.70;68.10;;;;;;4983083;28;20026;-74
2022/06/18 07:21:00;;;;;;;25.23;15.52;;;21.70;68.40;;;;;;5038540;28;20104;-77
2022/06/18 07:23:26;;;;;;;26.40;16.00;;;21.80;68.60;;;;;;5040200;28;20052;-75
2022/06/18 07:25:52;;;;;;;20.08;14.73;;;21.80;68.60;;;;;;5023016;28;20064;-75
2022/06/18 07:28:18;;;;;;;19.73;13.93;;;21.90;68.80;;;;;;5056478;28;20029;-75
2022/06/18 07:30:46;;;;;;;16.95;12.43;;;22.00;68.90;;;;;;5065377;28;20126;-75
2022/06/18 07:33:21;;;;;;;20.20;13.02;;;22.00;68.80;;;;;;5065946;28;20023;-75
2022/06/18 07:35:48;;;;;;;17.40;12.00;;;22.00;68.70;;;;;;5058622;28;20017;-76
2022/06/18 07:38:14;;;;;;;19.00;12.18;;;22.10;68.70;;;;;;5044773;28;20045;-78
2022/06/18 07:40:53;;;;;;;18.52;10.98;;;22.10;68.60;;;;;;5039463;28;20027;-74
2022/06/18 07:43:31;;;;;;;15.00;10.38;;;22.10;68.60;;;;;;5032752;28;20040;-75
2022/06/18 07:45:57;;;;;;;14.63;10.15;;;22.10;68.50;;;;;;5041984;28;20052;-75
2022/06/18 07:48:24;;;;;;;14.63;10.07;;;22.20;68.50;;;;;;5022474;28;20508;-77
2022/06/18 07:50:50;;;;;;;15.82;10.32;;;22.20;68.60;;;;;;5043387;28;20478;-75
2022/06/18 07:53:19;;;;;;;15.23;9.57;;;22.20;68.60;;;;;;5043712;28;20044;-75
2022/06/18 07:55:45;;;;;;;13.75;8.75;;;22.30;68.70;;;;;;5023998;28;20029;-76
2022/06/18 07:58:11;;;;;;;14.10;8.55;;;22.30;68.50;;;;;;5027917;28;20036;-76
2022/06/18 08:00:39;;;;;;;11.38;7.75;;;22.30;67.80;;;;;;5024155;28;20090;-73
2022/06/18 08:03:07;;;;;;;13.88;8.23;;;22.20;66.80;;;;;;5044659;28;20166;-75
2022/06/18 08:05:33;;;;;;;11.48;7.70;;;22.10;66.00;;;;;;5006581;28;20033;-78
2022/06/18 08:07:59;;;;;;;15.43;8.48;;;22.10;65.90;;;;;;5037632;28;20294;-74
2022/06/18 08:10:25;;;;;;;12.23;8.25;;;22.00;65.90;;;;;;5024526;28;20666;-74
2022/06/18 08:12:51;;;;;;;9.13;7.75;;;22.10;66.30;;;;;;5040236;28;20127;-74
2022/06/18 08:15:18;;;;;;;11.32;7.65;;;22.10;66.40;;;;;;5041056;28;20163;-75
2022/06/18 08:17:44;;;;;;;11.75;7.15;;;22.10;66.20;;;;;;5041056;28;20043;-75
2022/06/18 08:20:10;;;;;;;11.27;7.30;;;22.20;66.20;;;;;;5022689;28;20179;-74
2022/06/18 08:22:41;;;;;;;10.25;7.25;;;22.20;66.10;;;;;;5041401;28;20090;-73
2022/06/18 08:25:10;;;;;;;12.13;7.20;;;22.20;66.00;;;;;;5042416;28;20021;-75
2022/06/18 08:27:37;;;;;;;9.95;6.60;;;22.10;65.70;;;;;;5038897;28;20032;-75
2022/06/18 08:30:05;;;;;;;9.48;6.43;;;22.10;65.60;;;;;;5034656;28;20056;-76
2022/06/18 08:32:31;;;;;;;9.40;6.07;;;22.10;65.50;;;;;;5039393;28;20033;-74
2022/06/18 08:34:57;;;;;;;8.63;7.43;;;22.10;65.40;;;;;;5030452;28;20020;-73
2022/06/18 08:37:23;;;;;;;8.70;6.80;;;22.10;65.30;;;;;;5034448;28;20079;-73
2022/06/18 08:39:50;;;;;;;8.05;6.13;;;22.20;65.40;;;;;;4998859;28;20072;-75
2022/06/18 08:42:22;;;;;;;8.57;5.82;;;22.10;65.10;;;;;;5009282;28;20025;-74
2022/06/18 08:45:00;;;;;;;9.32;5.80;;;22.10;65.10;;;;;;5032952;28;20065;-74
2022/06/18 08:47:41;;;;;;;8.30;5.57;;;22.10;65.00;;;;;;5041237;28;20034;-74
2022/06/18 08:50:22;;;;;;;6.82;5.78;;;22.10;64.90;;;;;;5025093;28;20040;-74
2022/06/18 08:53:17;;;;;;;8.88;5.97;;;22.10;64.80;;;;;;5040481;28;20032;-75
2022/06/18 08:55:56;;;;;;;7.25;5.20;;;22.20;64.90;;;;;;5030317;28;20043;-74
2022/06/18 08:58:28;;;;;;;7.38;5.38;;;22.10;64.60;;;;;;5032356;28;20036;-74
2022/06/18 09:00:57;;;;;;;8.13;5.22;;;22.20;64.70;;;;;;5039663;28;20037;-74
2022/06/18 09:03:48;;;;;;;6.97;5.30;;;22.20;64.60;;;;;;5038958;28;20037;-74
2022/06/18 09:06:20;;;;;;;6.78;4.80;;;22.20;64.60;;;;;;5036984;28;20419;-74
2022/06/18 09:08:52;;;;;;;8.70;5.05;;;22.20;64.40;;;;;;5033217;28;20033;-74
2022/06/18 09:11:53;;;;;;;5.67;4.40;;;22.30;64.50;;;;;;5029415;28;20751;-74
2022/06/18 09:14:43;;;;;;;7.57;4.30;;;22.30;64.40;;;;;;4974225;28;20364;-74
2022/06/18 09:17:30;;;;;;;9.57;4.25;;;22.30;64.40;;;;;;5022608;28;20025;-75
2022/06/18 09:20:01;;;;;;;6.60;4.65;;;22.20;64.30;;;;;;5037094;28;20519;-73
2022/06/18 09:22:30;;;;;;;8.57;4.25;;;22.20;64.30;;;;;;5039813;28;20082;-74
2022/06/18 09:25:03;;;;;;;5.78;4.05;;;22.10;64.10;;;;;;5027389;28;20044;-74
2022/06/18 09:27:58;;;;;;;6.90;3.90;;;22.10;64.20;;;;;;5030396;28;20106;-75
2022/06/18 09:30:45;;;;;;;6.68;4.00;;;22.00;64.10;;;;;;5031193;28;20133;-74
2022/06/18 09:33:34;;;;;;;5.88;4.22;;;22.00;64.10;;;;;;5028468;28;20120;-75
2022/06/18 09:36:33;;;;;;;5.65;3.58;;;22.00;64.10;;;;;;5031581;28;20060;-74
2022/06/18 09:39:18;;;;;;;6.85;3.17;;;22.00;64.00;;;;;;5022729;28;20041;-74
2022/06/18 09:42:03;;;;;;;4.32;3.35;;;22.00;64.00;;;;;;5026936;28;20393;-75
2022/06/18 09:44:44;;;;;;;5.40;3.42;;;21.90;63.90;;;;;;5051917;28;20076;-75
2022/06/18 09:47:17;;;;;;;6.65;3.17;;;21.90;63.90;;;;;;5036967;28;20055;-74
2022/06/18 09:49:45;;;;;;;4.88;3.33;;;21.90;64.40;;;;;;5035229;28;20029;-74
2022/06/18 09:52:18;;;;;;;3.97;2.83;;;21.90;63.90;;;;;;5038893;28;20029;-73
2022/06/18 09:54:52;;;;;;;4.97;2.70;;;21.80;63.70;;;;;;5028599;28;20422;-73
2022/06/18 09:57:22;;;;;;;3.78;3.25;;;21.80;63.70;;;;;;5039148;28;20040;-74
2022/06/18 10:00:08;;;;;;;5.22;2.40;;;21.80;63.70;;;;;;5004666;28;20044;-74
2022/06/18 10:03:10;;;;;;;3.40;2.55;;;21.80;63.60;;;;;;5034604;28;20124;-75
2022/06/18 10:08:38;;;;;;;3.50;2.42;;;21.90;63.60;;;;;;5038964;28;20434;-74
2022/06/18 10:11:08;;;;;;;4.88;2.75;;;21.80;63.30;;;;;;5037635;28;20033;-74
2022/06/18 10:13:45;;;;;;;3.40;2.28;;;21.80;63.30;;;;;;5027607;28;20025;-74
2022/06/18 10:16:34;;;;;;;6.53;2.88;;;21.80;63.40;;;;;;5024371;28;20511;-74
2022/06/18 10:19:28;;;;;;;3.38;2.53;;;21.80;63.30;;;;;;5020933;28;20551;-74
2022/06/18 10:22:09;;;;;;;4.25;2.70;;;21.80;63.20;;;;;;5035781;28;20078;-74
2022/06/18 10:25:00;;;;;;;3.25;2.45;;;21.90;63.30;;;;;;5027042;28;20041;-74
2022/06/18 10:27:55;;;;;;;4.35;2.65;;;22.00;63.30;;;;;;5033282;28;20040;-74
2022/06/18 10:30:40;;;;;;;3.80;1.73;;;22.00;63.20;;;;;;5033836;28;20017;-76
2022/06/18 10:33:39;;;;;;;4.15;1.80;;;22.00;63.00;;;;;;5030684;28;20017;-74
2022/06/18 10:36:26;;;;;;;3.80;2.40;;;22.10;63.10;;;;;;5037838;28;20033;-75
2022/06/18 10:39:14;;;;;;;3.97;2.13;;;22.00;62.90;;;;;;5039327;28;20057;-75
2022/06/18 10:42:03;;;;;;;4.97;1.98;;;22.00;63.00;;;;;;5039813;28;20031;-73
2022/06/18 10:44:47;;;;;;;5.85;2.40;;;22.00;63.10;;;;;;5035521;28;20481;-73
2022/06/18 10:47:19;;;;;;;6.38;2.70;;;21.90;63.00;;;;;;5044427;28;20412;-73
2022/06/18 10:49:46;;;;;;;4.25;2.42;;;21.90;63.00;;;;;;5042242;28;20029;-75
2022/06/18 10:52:23;;;;;;;4.20;1.75;;;21.80;62.80;;;;;;5044950;28;20444;-75
2022/06/18 10:54:51;;;;;;;4.85;2.10;;;21.80;63.00;;;;;;5041711;28;20039;-78
2022/06/18 10:57:26;;;;;;;4.47;2.28;;;21.80;63.00;;;;;;5043484;28;20029;-77
2022/06/18 10:59:52;;;;;;;4.20;2.00;;;21.70;63.00;;;;;;5025243;28;20079;-75
2022/06/18 11:02:34;;;;;;;5.40;2.60;;;21.70;63.10;;;;;;5026038;28;20400;-75
2022/06/18 11:05:24;;;;;;;3.87;2.07;;;21.60;63.10;;;;;;5038690;28;20036;-75
2022/06/18 11:07:53;;;;;;;4.10;1.90;;;21.50;63.10;;;;;;5038291;28;20777;-75
2022/06/18 11:10:22;;;;;;;5.70;2.40;;;21.50;63.20;;;;;;5041068;28;20041;-75
2022/06/18 11:12:54;;;;;;;6.78;2.30;;;21.40;63.10;;;;;;5041539;28;20120;-74
2022/06/18 11:15:38;;;;;;;9.23;2.97;;;21.40;63.30;;;;;;5036508;28;20612;-74
2022/06/18 11:18:20;;;;;;;4.28;2.08;;;21.40;63.40;;;;;;5039332;28;20390;-74
2022/06/18 11:21:00;;;;;;;4.20;2.17;;;21.50;63.30;;;;;;5017840;28;20045;-74
2022/06/18 11:23:27;;;;;;;3.42;1.70;;;21.60;63.10;;;;;;5006702;28;20037;-73
2022/06/18 11:25:57;;;;;;;4.15;1.90;;;21.70;63.00;;;;;;5031926;28;20041;-75
2022/06/18 11:28:42;;;;;;;5.28;1.58;;;21.80;63.10;;;;;;5031682;28;20841;-74
2022/06/18 11:31:09;;;;;;;5.88;1.65;;;21.90;63.10;;;;;;5033752;28;21204;-75
2022/06/18 11:33:50;;;;;;;4.28;2.33;;;22.10;62.90;;;;;;5013193;28;20160;-74
2022/06/18 11:36:19;;;;;;;7.72;3.00;;;22.30;62.80;;;;;;5037635;28;20021;-75
2022/06/18 11:38:57;;;;;;;4.90;1.85;;;22.50;62.60;;;;;;5003601;28;20175;-74
2022/06/18 11:41:38;;;;;;;4.15;1.95;;;22.60;62.50;;;;;;5034273;28;20036;-76
2022/06/18 11:44:25;;;;;;;3.53;1.73;;;22.60;62.30;;;;;;5023584;28;20059;-74
2022/06/18 11:47:24;;;;;;;5.00;1.88;;;22.70;62.40;;;;;;5028019;28;20048;-74
2022/06/18 11:49:59;;;;;;;4.35;1.75;;;22.60;62.20;;;;;;5028048;28;20248;-75
2022/06/18 11:52:45;;;;;;;4.03;2.03;;;22.60;62.30;;;;;;5019194;28;20370;-74
2022/06/18 11:55:34;;;;;;;5.65;1.83;;;22.50;62.10;;;;;;5034581;28;20048;-76
2022/06/18 11:58:30;;;;;;;3.45;1.63;;;22.50;62.20;;;;;;5017392;28;20044;-77
2022/06/18 12:01:21;;;;;;;6.43;1.70;;;22.50;62.30;;;;;;5030026;28;20116;-76
2022/06/18 12:03:53;;;;;;;4.95;2.30;;;22.40;62.30;;;;;;5027247;28;20563;-77
2022/06/18 12:06:40;;;;;;;6.70;1.75;;;22.30;62.20;;;;;;5033560;28;20025;-74
2022/06/18 12:09:10;;;;;;;6.28;1.73;;;22.20;62.20;;;;;;5035195;28;20060;-74
2022/06/18 12:12:17;;;;;;;3.67;1.58;;;22.20;62.50;;;;;;5004098;28;20029;-75
2022/06/18 12:14:49;;;;;;;6.57;2.75;;;22.10;62.50;;;;;;5018170;28;20033;-74
2022/06/18 12:17:23;;;;;;;4.25;2.10;;;22.10;62.50;;;;;;5018309;28;20024;-74
2022/06/18 12:20:04;;;;;;;5.80;1.92;;;22.10;62.40;;;;;;5030513;28;20110;-75
2022/06/18 12:22:42;;;;;;;5.13;1.98;;;22.10;62.30;;;;;;5011992;28;20062;-75
2022/06/18 12:25:36;;;;;;;5.82;2.28;;;22.10;62.30;;;;;;5031242;28;20068;-74
2022/06/18 12:28:36;;;;;;;6.65;2.45;;;22.10;62.30;;;;;;4998966;28;20036;-75
2022/06/18 12:31:22;;;;;;;2.78;1.60;;;22.00;62.30;;;;;;5027919;28;20219;-76
2022/06/18 12:34:07;;;;;;;6.30;2.63;;;22.00;62.40;;;;;;5025766;28;20056;-75
2022/06/18 12:36:52;;;;;;;6.03;2.38;;;21.90;62.20;;;;;;5014815;28;20496;-77
2022/06/18 12:39:32;;;;;;;11.38;3.75;;;22.00;62.60;;;;;;5032100;28;20476;-76
2022/06/18 12:42:11;;;;;;;11.35;4.18;;;22.00;62.70;;;;;;5013785;28;20029;-74
2022/06/18 12:44:58;;;;;;;15.52;4.30;;;22.00;62.70;;;;;;5034163;28;20456;-75
2022/06/18 12:48:10;;;;;;;16.50;4.60;;;22.10;63.10;;;;;;5027867;28;20038;-74
2022/06/18 12:50:42;;;;;;;11.23;4.65;;;22.10;63.30;;;;;;5033947;28;20021;-76
2022/06/18 12:53:14;;;;;;;10.75;4.55;;;22.20;63.30;;;;;;5031408;28;20507;-75
2022/06/18 12:56:00;;;;;;;17.52;5.22;;;22.30;63.80;;;;;;5023075;28;20728;-74
2022/06/18 12:59:17;;;;;;;12.73;5.18;;;22.60;64.60;;;;;;5027712;28;20067;-73
2022/06/18 13:02:00;;;;;;;12.13;6.30;;;22.80;64.90;;;;;;5009528;28;20044;-75
2022/06/18 13:04:37;;;;;;;16.52;7.50;;;23.20;65.10;;;;;;5026867;28;20039;-78
2022/06/18 13:07:16;;;;;;;13.15;6.00;;;23.40;64.90;;;;;;5025088;28;20063;-77
2022/06/18 13:10:01;;;;;;;14.05;5.93;;;23.60;64.80;;;;;;5030639;28;21036;-77
2022/06/18 13:12:45;;;;;;;13.27;6.18;;;23.80;64.70;;;;;;5015275;28;20358;-81
2022/06/18 13:15:27;;;;;;;10.05;5.22;;;23.80;64.30;;;;;;5016002;28;20040;-76
2022/06/18 13:18:02;;;;;;;10.90;6.30;;;23.90;64.10;;;;;;5033748;28;20122;-81
2022/06/18 13:20:38;;;;;;;11.75;5.63;;;23.80;63.20;;;;;;5033020;28;20167;-81